George Town, Cayman Islands
Current Conditions -  °F | °C
As of 9:00 PM on Sunday 21 Dec 2014 (Local Time) from MWCR Reporting Station
Few Clouds Few Clouds  
Wind Chill: 25°   Ceiling: Unl
Heat Index: 26°   Visibility: 6mi
Dew Point: 24°   Wind: 6mph
Humidity: 94%   Direction: 80°E
Pressure: 29.97"   Gusts: NA
Location:  19.28°N, 81.39°W
Report Text: MWCR 220200Z 08005KT 9999 FEW020 25/24 Q1015 NOSIG
Loading
Personal Weather Stations






























Interactive Weather Map New forecast layout! Learn more

10-Day Weather Forecast

Advertisements
Track Severe Weather on mobile